Terminal Aerodrome Forecast
Issued by NWS

Home | Current Version | Previous Version | Text Only | Print | Product List | Glossary On
Versions: 1 2 3 4 5 6 7 8 9 10 11 12 13
000
FTUS45 KVEF 181720
TAFBIH
TAF
KBIH 181720Z 1818/1918 VRB04KT P6SM FEW120
     FM182000 17008KT P6SM SCT120
     FM190800 32006KT P6SM SCT140 SCT200
     FM191400 VRB04KT P6SM SCT140 SCT200=

USA.gov is the U.S. government's official web portal to all federal, state and local government web resources and services.